Ice Star — OUJK2 — position and weather

sailwx.info

Track history (hours):
 
Tides and Currents Weather Stations Pressure Air Temp Water Temp Dewpoint Dewpoint Depression Visibility Wind Speed Wind Dir Waves Ship Positions

Ice Star

Last reported at 2016-Aug-28 06:34 UTC. Time now 2016-Aug-28 14:09 UTC.
Position N 22°06' E 114°21'.

Length 367 m; draft 15.2 m.

Type: Ship (hazmat cat A). MMSI: 220596000.

Date/timePositionNaut miles runAvg speedWind from/ knotsBaromVisibWave heightAir tempDewpointWater temp
2016-Aug-28 06:34N 22°06' E 114°21'3110.3
2016-Aug-28 03:33N 22°24' E 113°53'4 2.8
2016-Aug-28 02:10N 22°28' E 113°53'0 0.0
2016-Aug-28 01:22N 22°28' E 113°53'0 0.0
2016-Aug-27 11:10N 22°28' E 113°53'0 0.0
2016-Aug-27 07:16N 22°28' E 113°53'1 1.3
2016-Aug-27 06:34N 22°27' E 113°53'31 7.7
2016-Aug-27 02:32N 22°08' E 114°19'15117.8
2016-Aug-26 18:04N 22°50' E 116°56'13419.4
2016-Aug-26 11:08N 24°14' E 118°51'1119.1
2016-Aug-26 10:33N 24°22' E 118°59'2319.1
2016-Aug-26 09:23N 24°37' E 119°18'1619.1
2016-Aug-26 08:33N 24°47' E 119°31'3918.6
2016-Aug-26 06:28N 25°14' E 120°02'27217.8
2016-Aug-25 15:11N 29°12' E 122°31'1819.4
2016-Aug-25 14:14N 29°30' E 122°33'1115.7
2016-Aug-25 13:33N 29°40' E 122°30'1211.8
2016-Aug-25 12:33N 29°45' E 122°18'1212.1
2016-Aug-25 11:33N 29°55' E 122°10'6 6.2
2016-Aug-25 10:33N 29°53' E 122°03'0 0.0
2016-Aug-25 04:31N 29°53' E 122°03'0 0.0
2016-Aug-24 20:31N 29°53' E 122°03'0 0.0
2016-Aug-24 19:13N 29°53' E 122°03'0 0.0
2016-Aug-24 18:22N 29°53' E 122°03'0 0.0
2016-Aug-24 17:25N 29°53' E 122°03'0 0.0
2016-Aug-24 14:10N 29°53' E 122°03'0 0.0
2016-Aug-24 13:28N 29°53' E 122°03'0 0.0
2016-Aug-24 12:31N 29°53' E 122°03'0 0.0
2016-Aug-24 09:31N 29°53' E 122°03'0 0.0
2016-Aug-24 04:31N 29°53' E 122°03'0 0.0
2016-Aug-24 03:28N 29°53' E 122°03'0 0.0
2016-Aug-24 02:22N 29°53' E 122°03'3 3.5
2016-Aug-24 01:33N 29°55' E 122°05'1212.0
2016-Aug-24 00:33N 29°48' E 122°15'6 6.5
2016-Aug-23 23:33N 29°44' E 122°22'5 5.4
2016-Aug-23 22:32N 29°43' E 122°28'5 5.4
2016-Aug-23 21:31N 29°45' E 122°34'3 2.7
2016-Aug-23 20:32N 29°47' E 122°36'7 5.9
2016-Aug-23 19:21N 29°51' E 122°42'5 6.0
2016-Aug-23 18:33N 29°54' E 122°47'4 1.8
2016-Aug-23 16:33N 29°52' E 122°44'2210.1
2016-Aug-23 14:24N 30°07' E 123°01'1210.2
2016-Aug-23 13:13N 30°19' E 122°57'810.9
2016-Aug-23 12:29N 30°24' E 122°50'1111.5
2016-Aug-23 11:33N 30°29' E 122°39'6 0.2
2016-Aug-22 07:33N 30°30' E 122°32'1615.9
2016-Aug-22 06:34N 30°30' E 122°51'  
Track history (hours):
 
Tides and Currents Weather Stations Pressure Air Temp Water Temp Dewpoint Dewpoint Depression Visibility Wind Speed Wind Dir Waves Ship Positions

Ice Star

Last reported at 2016-Aug-28 06:34 UTC. Time now 2016-Aug-28 14:09 UTC.
Position N 22°06' E 114°21'.

Length 367 m; draft 15.2 m.

Type: Ship (hazmat cat A). MMSI: 220596000.

Date/timePositionNaut miles runAvg speedWind from/ knotsBaromVisibWave heightAir tempDewpointWater temp
2016-Aug-28 06:34N 22°06' E 114°21'3110.3
2016-Aug-28 03:33N 22°24' E 113°53'4 2.8
2016-Aug-28 02:10N 22°28' E 113°53'0 0.0
2016-Aug-28 01:22N 22°28' E 113°53'0 0.0
2016-Aug-27 11:10N 22°28' E 113°53'0 0.0
2016-Aug-27 07:16N 22°28' E 113°53'1 1.3
2016-Aug-27 06:34N 22°27' E 113°53'31 7.7
2016-Aug-27 02:32N 22°08' E 114°19'15117.8
2016-Aug-26 18:04N 22°50' E 116°56'13419.4
2016-Aug-26 11:08N 24°14' E 118°51'1119.1
2016-Aug-26 10:33N 24°22' E 118°59'2319.1
2016-Aug-26 09:23N 24°37' E 119°18'1619.1
2016-Aug-26 08:33N 24°47' E 119°31'3918.6
2016-Aug-26 06:28N 25°14' E 120°02'27217.8
2016-Aug-25 15:11N 29°12' E 122°31'1819.4
2016-Aug-25 14:14N 29°30' E 122°33'1115.7
2016-Aug-25 13:33N 29°40' E 122°30'1211.8
2016-Aug-25 12:33N 29°45' E 122°18'1212.1
2016-Aug-25 11:33N 29°55' E 122°10'6 6.2
2016-Aug-25 10:33N 29°53' E 122°03'0 0.0
2016-Aug-25 04:31N 29°53' E 122°03'0 0.0
2016-Aug-24 20:31N 29°53' E 122°03'0 0.0
2016-Aug-24 19:13N 29°53' E 122°03'0 0.0
2016-Aug-24 18:22N 29°53' E 122°03'0 0.0
2016-Aug-24 17:25N 29°53' E 122°03'0 0.0
2016-Aug-24 14:10N 29°53' E 122°03'0 0.0
2016-Aug-24 13:28N 29°53' E 122°03'0 0.0
2016-Aug-24 12:31N 29°53' E 122°03'0 0.0
2016-Aug-24 09:31N 29°53' E 122°03'0 0.0
2016-Aug-24 04:31N 29°53' E 122°03'0 0.0
2016-Aug-24 03:28N 29°53' E 122°03'0 0.0
2016-Aug-24 02:22N 29°53' E 122°03'3 3.5
2016-Aug-24 01:33N 29°55' E 122°05'1212.0
2016-Aug-24 00:33N 29°48' E 122°15'6 6.5
2016-Aug-23 23:33N 29°44' E 122°22'5 5.4
2016-Aug-23 22:32N 29°43' E 122°28'5 5.4
2016-Aug-23 21:31N 29°45' E 122°34'3 2.7
2016-Aug-23 20:32N 29°47' E 122°36'7 5.9
2016-Aug-23 19:21N 29°51' E 122°42'5 6.0
2016-Aug-23 18:33N 29°54' E 122°47'4 1.8
2016-Aug-23 16:33N 29°52' E 122°44'2210.1
2016-Aug-23 14:24N 30°07' E 123°01'1210.2
2016-Aug-23 13:13N 30°19' E 122°57'810.9
2016-Aug-23 12:29N 30°24' E 122°50'1111.5
2016-Aug-23 11:33N 30°29' E 122°39'6 0.2
2016-Aug-22 07:33N 30°30' E 122°32'1615.9
2016-Aug-22 06:34N 30°30' E 122°51'  

Dump ship's entire track history